Time;durP1;ratioP1;P1;durP2;ratioP2;P2;SDS_P1;SDS_P2;PMS_P1;PMS_P2;Temp;Humidity;BMP_temperature;BMP_pressure;BME280_temperature;BME280_humidity;BME280_pressure;Samples;Min_cycle;Max_cycle;Signal;HPM_P1;HPM_P2
2023/01/06 00:01:22;;;;;;;8.45;7.30;;;;;;;6.85;83.58;99188.06;1716193;83;21220;-55
2023/01/06 00:04:28;;;;;;;9.55;7.50;;;;;;;6.89;83.62;99198.91;1715903;83;21216;-56
2023/01/06 00:07:36;;;;;;;8.93;7.05;;;;;;;6.90;83.63;99193.78;1716220;83;21556;-56
2023/01/06 00:10:47;;;;;;;8.28;6.10;;;;;;;6.89;83.62;99190.24;1716150;83;21401;-56
2023/01/06 00:13:53;;;;;;;7.95;6.20;;;;;;;6.91;83.64;99197.68;1683423;85;21225;-56
2023/01/06 00:16:59;;;;;;;8.45;6.40;;;;;;;6.91;83.67;99196.32;1683218;85;21232;-56
2023/01/06 00:20:05;;;;;;;8.70;6.72;;;;;;;6.91;83.68;99199.05;1683515;85;21217;-53
2023/01/06 00:23:09;;;;;;;13.93;8.88;;;;;;;6.92;83.68;99196.67;1683345;84;21216;-56
2023/01/06 00:26:20;;;;;;;11.25;7.87;;;;;;;6.92;83.73;99202.62;1683867;85;21260;-54
2023/01/06 00:29:27;;;;;;;10.03;7.15;;;;;;;6.93;83.74;99206.52;1683641;85;21224;-55
2023/01/06 00:32:34;;;;;;;9.10;6.97;;;;;;;6.93;83.76;99209.23;1683551;85;21244;-55
2023/01/06 00:35:41;;;;;;;10.00;7.00;;;;;;;6.95;83.80;99209.05;1683656;85;21264;-55
2023/01/06 00:38:46;;;;;;;9.73;7.22;;;;;;;6.96;83.82;99214.31;1683537;85;21212;-55
2023/01/06 00:42:02;;;;;;;9.83;7.25;;;;;;;6.97;83.87;99214.66;1716282;83;21196;-54
2023/01/06 00:45:09;;;;;;;14.70;8.40;;;;;;;6.97;83.85;99211.94;1716503;83;21209;-55
2023/01/06 00:48:16;;;;;;;15.68;8.95;;;;;;;6.98;83.88;99210.05;1688320;85;21235;-55
2023/01/06 00:51:21;;;;;;;16.40;8.50;;;;;;;6.99;83.90;99209.03;1630420;88;21279;-54
2023/01/06 00:54:28;;;;;;;12.33;8.50;;;;;;;7.00;83.92;99206.64;1655818;86;21208;-55
2023/01/06 00:57:35;;;;;;;13.03;8.20;;;;;;;6.99;83.91;99215.30;1687648;85;21404;-55
2023/01/06 01:00:41;;;;;;;14.28;9.73;;;;;;;6.99;83.92;99211.76;1629903;88;21240;-55
2023/01/06 01:03:47;;;;;;;12.28;7.97;;;;;;;7.00;83.93;99211.58;1656330;86;21283;-55
2023/01/06 01:06:54;;;;;;;8.90;7.22;;;;;;;7.00;83.93;99206.13;1688139;85;21433;-55
2023/01/06 01:10:00;;;;;;;12.68;8.58;;;;;;;7.00;83.95;99206.13;1630172;88;21247;-54
2023/01/06 01:13:06;;;;;;;12.35;7.95;;;;;;;7.00;83.97;99208.86;1656637;86;21239;-55
2023/01/06 01:16:13;;;;;;;11.65;7.83;;;;;;;7.00;83.98;99212.94;1688059;85;21239;-54
2023/01/06 01:19:20;;;;;;;12.45;8.53;;;;;;;7.01;84.03;99213.26;1630160;88;21224;-55
2023/01/06 01:22:25;;;;;;;10.78;7.92;;;;;;;7.03;84.01;99219.88;1688586;83;21367;-56
2023/01/06 01:25:32;;;;;;;13.25;8.40;;;;;;;7.03;84.02;99215.29;1630028;88;21244;-55
2023/01/06 01:28:39;;;;;;;11.30;8.55;;;;;;;7.04;84.04;99222.41;1656121;86;21279;-55
2023/01/06 01:31:45;;;;;;;11.85;8.30;;;;;;;7.04;84.08;99218.33;1671914;85;21807;-55
2023/01/06 01:34:52;;;;;;;9.48;7.03;;;;;;;7.06;84.12;99212.20;1629939;87;21231;-56
2023/01/06 01:37:59;;;;;;;10.55;7.80;;;;;;;7.09;84.15;99223.22;1656672;86;21259;-55
2023/01/06 01:41:04;;;;;;;9.80;7.45;;;;;;;7.08;84.15;99216.95;1687673;85;21788;-56
2023/01/06 01:44:31;;;;;;;8.88;7.35;;;;;;;7.08;84.15;99218.82;1688272;85;21252;-54
2023/01/06 01:47:50;;;;;;;10.25;7.37;;;;;;;7.08;84.13;99216.95;1647235;85;21244;-55
2023/01/06 01:50:59;;;;;;;9.88;7.42;;;;;;;7.08;84.20;99215.59;1650515;87;21262;-56
2023/01/06 01:54:09;;;;;;;8.98;7.42;;;;;;;7.09;84.25;99215.06;1683798;84;21279;-54
2023/01/06 01:57:21;;;;;;;8.48;6.53;;;;;;;7.10;84.25;99221.67;1676080;85;21307;-55
2023/01/06 02:00:28;;;;;;;9.78;6.75;;;;;;;7.10;84.24;99220.31;1675885;85;21208;-55
2023/01/06 02:03:37;;;;;;;8.63;7.10;;;;;;;7.11;84.25;99215.23;1661935;85;21255;-56
2023/01/06 02:06:47;;;;;;;11.20;6.60;;;;;;;7.11;84.29;99215.23;1676123;85;21240;-55
2023/01/06 02:10:01;;;;;;;8.28;6.58;;;;;;;7.12;84.32;99227.79;1661664;85;21736;-54
2023/01/06 02:13:07;;;;;;;10.93;7.12;;;;;;;7.13;84.30;99219.12;1676314;85;21252;-54
2023/01/06 02:16:41;;;;;;;9.10;7.03;;;;;;;7.13;84.32;99223.20;1676402;85;21661;-53
2023/01/06 02:20:08;;;;;;;12.45;8.43;;;;;;;7.12;84.31;99225.07;1676136;85;21329;-54
2023/01/06 02:23:50;;;;;;;11.43;8.08;;;;;;;7.11;84.32;99230.70;1676347;85;21280;-54
2023/01/06 02:27:38;;;;;;;9.25;6.90;;;;;;;7.11;84.33;99230.19;1676025;85;21295;-55
2023/01/06 02:31:20;;;;;;;9.78;7.35;;;;;;;7.10;84.37;99243.45;1676230;85;21220;-55
2023/01/06 02:34:46;;;;;;;8.45;6.62;;;;;;;7.10;84.42;99236.64;1676107;85;21257;-54
2023/01/06 02:38:14;;;;;;;9.85;7.33;;;;;;;7.10;84.44;99246.16;1676191;85;21252;-54
2023/01/06 02:41:40;;;;;;;10.70;8.00;;;;;;;7.08;84.44;99244.66;1676086;85;21737;-54
2023/01/06 02:44:51;;;;;;;10.25;7.60;;;;;;;7.08;84.48;99242.80;1676127;85;21216;-54
2023/01/06 02:48:16;;;;;;;8.08;6.92;;;;;;;7.08;84.49;99249.61;1675769;83;21797;-54
2023/01/06 02:51:32;;;;;;;8.70;6.95;;;;;;;7.08;84.51;99256.41;1678765;85;21221;-54
2023/01/06 02:54:52;;;;;;;8.53;6.85;;;;;;;7.07;84.49;99262.86;1678854;85;21236;-55
2023/01/06 02:58:07;;;;;;;8.83;6.15;;;;;;;7.07;84.49;99249.79;1713957;83;22702;-54
2023/01/06 03:01:23;;;;;;;9.18;6.70;;;;;;;7.04;84.49;99259.14;1683861;85;21268;-56
2023/01/06 03:04:37;;;;;;;8.68;6.50;;;;;;;7.05;84.51;99260.00;1681477;84;21247;-54
2023/01/06 03:07:43;;;;;;;8.80;6.72;;;;;;;7.05;84.49;99266.30;1713354;83;21604;-54
2023/01/06 03:10:52;;;;;;;8.40;6.78;;;;;;;7.06;84.51;99270.70;1683092;85;21216;-55
2023/01/06 03:14:36;;;;;;;8.95;6.20;;;;;;;7.06;84.54;99265.76;1713960;83;21283;-55
2023/01/06 03:17:43;;;;;;;8.48;6.53;;;;;;;7.04;84.52;99271.92;1684028;84;21311;-55
2023/01/06 03:20:42;;;;;;;7.40;5.85;;;;;;;7.03;84.52;99273.78;1713684;83;21208;-55
2023/01/06 03:23:47;;;;;;;10.00;6.62;;;;;;;7.03;84.57;99273.78;1682864;85;21228;-55
2023/01/06 03:26:53;;;;;;;7.75;6.37;;;;;;;7.03;84.57;99278.36;1689669;83;21224;-54
2023/01/06 03:29:59;;;;;;;8.45;6.12;;;;;;;7.02;84.58;99278.91;1682446;85;21232;-55
2023/01/06 03:33:14;;;;;;;7.42;5.90;;;;;;;7.01;84.58;99281.27;1683016;85;21369;-55
2023/01/06 03:36:36;;;;;;;9.00;5.83;;;;;;;7.01;84.59;99293.52;1714080;83;21212;-55
2023/01/06 03:39:40;;;;;;;7.53;5.45;;;;;;;7.02;84.64;99289.78;1704602;83;21721;-56
2023/01/06 03:43:15;;;;;;;7.03;5.62;;;;;;;7.00;84.61;99302.71;1713706;83;21274;-55
2023/01/06 03:46:30;;;;;;;12.07;6.78;;;;;;;7.00;84.66;99297.27;1691736;84;21213;-55
2023/01/06 03:49:41;;;;;;;13.88;8.15;;;;;;;7.02;84.70;99301.17;1713610;83;21215;-55
2023/01/06 03:53:12;;;;;;;8.15;6.75;;;;;;;7.03;84.77;99306.44;1720918;83;21235;-55
2023/01/06 03:56:37;;;;;;;11.45;8.43;;;;;;;7.05;84.80;99303.53;1704403;83;21187;-53
2023/01/06 03:59:56;;;;;;;10.95;7.62;;;;;;;7.05;84.77;99307.11;1720673;83;21219;-56
2023/01/06 04:03:08;;;;;;;9.50;6.90;;;;;;;7.03;84.78;99306.44;1721028;83;21211;-56
2023/01/06 04:06:14;;;;;;;9.50;7.10;;;;;;;7.03;84.80;99310.52;1721398;83;21231;-55
2023/01/06 04:09:21;;;;;;;7.62;6.50;;;;;;;7.03;84.80;99305.07;1688089;85;21243;-54
2023/01/06 04:12:37;;;;;;;8.70;6.58;;;;;;;7.05;84.87;99316.63;1660617;86;21249;-56
2023/01/06 04:15:47;;;;;;;9.63;6.72;;;;;;;7.07;84.88;99318.64;1720910;83;21211;-55
2023/01/06 04:18:54;;;;;;;10.25;6.95;;;;;;;7.07;84.81;99327.33;1720665;83;21216;-55
2023/01/06 04:22:00;;;;;;;8.75;5.83;;;;;;;7.05;84.81;99327.52;1720798;83;21259;-55
2023/01/06 04:25:06;;;;;;;6.62;4.05;;;;;;;7.05;84.79;99341.12;1720692;83;21340;-54
2023/01/06 04:28:12;;;;;;;5.35;3.70;;;;;;;7.03;84.75;99341.80;1733600;82;21271;-55
2023/01/06 04:31:18;;;;;;;5.33;3.15;;;;;;;7.00;84.72;99353.05;1732225;82;21267;-54
2023/01/06 04:34:24;;;;;;;2.00;1.75;;;;;;;6.98;84.65;99356.95;1747082;82;21739;-53
2023/01/06 04:37:28;;;;;;;2.67;1.80;;;;;;;6.90;84.53;99367.87;1712755;83;21220;-53
2023/01/06 04:40:35;;;;;;;1.72;1.35;;;;;;;6.79;84.42;99373.20;1712586;83;21954;-55
2023/01/06 04:43:42;;;;;;;1.87;1.47;;;;;;;6.70;84.30;99362.53;1712251;83;21734;-54
2023/01/06 04:46:48;;;;;;;1.80;1.40;;;;;;;6.57;84.11;99403.88;1706443;83;21978;-54
2023/01/06 04:49:54;;;;;;;2.22;1.30;;;;;;;6.41;83.92;99398.47;1712909;82;21743;-55
2023/01/06 04:53:00;;;;;;;1.27;1.17;;;;;;;6.32;83.92;99414.97;1719234;83;21279;-55
2023/01/06 04:56:11;;;;;;;1.47;1.30;;;;;;;6.20;83.84;99413.11;1711738;83;21725;-54
2023/01/06 04:59:16;;;;;;;1.55;1.40;;;;;;;6.05;83.77;99421.13;1703855;84;21745;-55
2023/01/06 05:02:22;;;;;;;3.47;1.60;;;;;;;5.94;83.72;99432.34;1653539;86;21247;-54
2023/01/06 05:05:27;;;;;;;2.33;1.70;;;;;;;5.82;83.68;99442.31;1628946;86;21227;-55
2023/01/06 05:08:34;;;;;;;11.93;5.05;;;;;;;5.71;83.66;99444.83;1660259;83;21658;-54
2023/01/06 05:11:41;;;;;;;8.35;7.20;;;;;;;5.62;83.61;99449.06;1704154;83;21365;-54
2023/01/06 05:14:47;;;;;;;2.22;1.92;;;;;;;5.48;83.46;99462.79;1690158;83;21288;-54
2023/01/06 05:17:53;;;;;;;2.45;2.10;;;;;;;5.36;83.39;99471.41;1704932;84;21290;-54
2023/01/06 05:21:00;;;;;;;2.67;1.90;;;;;;;5.21;83.28;99485.25;1704814;83;21207;-54
2023/01/06 05:24:06;;;;;;;1.80;1.67;;;;;;;5.10;83.35;99486.90;1704979;84;21685;-54
2023/01/06 05:27:11;;;;;;;3.45;2.20;;;;;;;5.00;83.31;99506.50;1704655;82;21203;-54
2023/01/06 05:30:20;;;;;;;3.55;2.90;;;;;;;4.80;83.09;99519.47;1704277;82;21796;-55
2023/01/06 05:33:27;;;;;;;3.27;2.72;;;;;;;4.61;83.01;99523.22;1703663;84;21243;-54
2023/01/06 05:36:33;;;;;;;3.20;2.80;;;;;;;4.38;82.75;99527.96;1703905;84;21307;-55
2023/01/06 05:39:38;;;;;;;3.72;3.15;;;;;;;4.21;82.80;99545.95;1704492;84;21191;-55
2023/01/06 05:42:44;;;;;;;3.67;3.22;;;;;;;4.13;82.94;99548.59;1700608;84;21607;-54
2023/01/06 05:45:49;;;;;;;3.80;3.40;;;;;;;4.01;82.92;99559.29;1697264;84;21623;-53
2023/01/06 05:48:55;;;;;;;3.62;3.33;;;;;;;3.93;83.02;99560.56;1671362;82;21808;-54
2023/01/06 05:52:02;;;;;;;3.83;3.42;;;;;;;3.93;83.13;99568.69;1675110;83;21312;-53
2023/01/06 05:55:07;;;;;;;4.97;4.17;;;;;;;3.86;83.09;99577.09;1673924;85;21761;-54
2023/01/06 05:58:14;;;;;;;5.40;4.28;;;;;;;3.77;83.01;99587.48;1696971;82;21255;-54
2023/01/06 06:01:33;;;;;;;6.22;4.67;;;;;;;3.71;83.12;99590.78;1711258;82;21176;-54
2023/01/06 06:04:40;;;;;;;14.43;7.30;;;;;;;3.65;83.10;99604.92;1711043;84;21195;-55
2023/01/06 06:07:47;;;;;;;5.58;4.35;;;;;;;3.55;83.06;99618.99;1675409;85;21263;-55
2023/01/06 06:10:52;;;;;;;7.95;5.35;;;;;;;3.51;83.12;99628.91;1641598;87;21244;-54
2023/01/06 06:14:02;;;;;;;5.72;4.03;;;;;;;3.42;83.02;99651.46;1675075;85;21777;-51
2023/01/06 06:17:09;;;;;;;5.97;4.08;;;;;;;3.29;82.98;99640.98;1641430;86;21200;-50
2023/01/06 06:20:15;;;;;;;5.33;4.22;;;;;;;3.24;83.05;99659.50;1674947;85;21279;-50
2023/01/06 06:23:20;;;;;;;5.25;4.15;;;;;;;3.23;83.15;99670.46;1641126;87;21829;-50
2023/01/06 06:26:26;;;;;;;4.70;4.20;;;;;;;3.21;83.15;99684.12;1662237;84;21788;-50
2023/01/06 06:29:32;;;;;;;6.12;4.40;;;;;;;3.22;83.26;99702.57;1707642;84;21216;-52
2023/01/06 06:32:38;;;;;;;5.55;4.95;;;;;;;3.25;83.31;99709.87;1703405;84;21288;-50
2023/01/06 06:35:45;;;;;;;5.83;4.90;;;;;;;3.27;83.36;99714.64;1703352;84;21558;-50
2023/01/06 06:38:55;;;;;;;5.90;4.85;;;;;;;3.30;83.39;99727.86;1710048;82;21713;-50
2023/01/06 06:42:02;;;;;;;5.97;4.90;;;;;;;3.23;83.24;99736.22;1711547;84;21220;-50
2023/01/06 06:45:10;;;;;;;6.20;5.10;;;;;;;3.22;83.26;99752.59;1711061;84;21296;-52
2023/01/06 06:48:15;;;;;;;6.60;5.60;;;;;;;3.18;83.21;99753.38;1703351;83;21215;-51
2023/01/06 06:51:25;;;;;;;5.72;5.00;;;;;;;3.10;83.14;99754.59;1677035;83;21327;-50
2023/01/06 06:54:31;;;;;;;7.10;5.80;;;;;;;3.09;83.19;99769.95;1692370;80;21220;-51
2023/01/06 06:57:38;;;;;;;6.33;5.30;;;;;;;3.14;83.24;99772.74;1664013;85;21568;-51
2023/01/06 07:00:44;;;;;;;9.75;5.72;;;;;;;3.11;83.16;99780.63;1671402;85;21216;-51
2023/01/06 07:03:50;;;;;;;5.72;4.47;;;;;;;3.10;83.14;99788.39;1680988;83;21231;-50
2023/01/06 07:06:56;;;;;;;5.58;4.95;;;;;;;3.11;83.17;99800.90;1715720;82;21235;-51
2023/01/06 07:10:04;;;;;;;7.17;5.75;;;;;;;3.07;83.12;99802.20;1716495;83;21207;-51
2023/01/06 07:13:11;;;;;;;6.25;5.35;;;;;;;3.01;83.06;99814.94;1687955;85;21251;-51
2023/01/06 07:16:16;;;;;;;6.83;5.78;;;;;;;3.01;83.15;99814.94;1699762;82;21262;-50
2023/01/06 07:19:22;;;;;;;8.83;5.97;;;;;;;3.03;83.18;99819.20;1690109;82;21215;-51
2023/01/06 07:22:28;;;;;;;7.33;6.05;;;;;;;3.09;83.30;99815.09;1723308;82;21279;-56
2023/01/06 07:25:33;;;;;;;8.38;6.45;;;;;;;3.12;83.23;99839.13;1716675;83;21207;-56
2023/01/06 07:28:42;;;;;;;7.58;6.33;;;;;;;3.15;83.23;99830.73;1686595;84;21278;-54
2023/01/06 07:31:51;;;;;;;8.08;7.03;;;;;;;3.16;83.16;99861.31;1687460;84;21247;-54
2023/01/06 07:34:57;;;;;;;7.75;6.45;;;;;;;3.12;83.06;99858.06;1651890;86;21228;-54
2023/01/06 07:38:11;;;;;;;8.43;7.20;;;;;;;3.11;82.97;99858.20;1689683;85;21192;-52
2023/01/06 07:41:18;;;;;;;7.95;6.58;;;;;;;3.09;83.03;99890.79;1689129;85;21219;-51
2023/01/06 07:44:24;;;;;;;8.05;7.12;;;;;;;3.12;83.07;99890.50;1693643;83;21729;-52
2023/01/06 07:47:30;;;;;;;8.60;7.08;;;;;;;3.08;82.94;99895.33;1696939;83;21227;-52
2023/01/06 07:50:36;;;;;;;8.90;6.75;;;;;;;2.99;82.84;99906.13;1692218;84;21216;-52
2023/01/06 07:53:44;;;;;;;8.78;6.17;;;;;;;2.98;82.86;99917.95;1652738;84;21694;-52
2023/01/06 07:56:50;;;;;;;9.48;6.97;;;;;;;2.94;82.91;99933.59;1682692;85;21787;-52
2023/01/06 07:59:56;;;;;;;10.20;6.70;;;;;;;2.91;82.87;99924.89;1681347;85;21263;-52
2023/01/06 08:03:04;;;;;;;10.78;8.28;;;;;;;2.84;82.87;99928.64;1666942;85;21280;-53
2023/01/06 08:06:17;;;;;;;8.75;7.10;;;;;;;2.81;82.94;99962.70;1649408;86;21310;-52
2023/01/06 08:09:23;;;;;;;;;;;;;;;2.75;82.84;99972.72;1693399;84;21291;-52
2023/01/06 08:12:29;;;;;;;12.37;7.95;;;;;;;2.62;82.75;99983.38;1690528;83;20602;-52
2023/01/06 08:15:35;;;;;;;9.05;7.10;;;;;;;2.52;82.65;99996.01;1686822;84;21223;-50
2023/01/06 08:18:44;;;;;;;11.00;8.30;;;;;;;2.40;82.70;100003.33;1651173;86;21788;-51
2023/01/06 08:21:50;;;;;;;10.05;7.83;;;;;;;2.42;82.81;100008.59;1675453;84;21252;-52
2023/01/06 08:24:57;;;;;;;9.40;7.55;;;;;;;2.39;82.76;100014.27;1686986;84;21236;-52
2023/01/06 08:28:06;;;;;;;10.43;7.35;;;;;;;2.35;82.75;100031.70;1692508;83;21457;-50
2023/01/06 08:31:18;;;;;;;10.55;7.80;;;;;;;2.28;82.70;100015.69;1650633;87;21765;-52
2023/01/06 08:34:24;;;;;;;10.32;7.87;;;;;;;2.22;82.66;100020.28;1680158;83;21734;-52
2023/01/06 08:37:30;;;;;;;10.75;7.47;;;;;;;2.10;82.57;100038.86;1707185;84;21240;-53
2023/01/06 08:40:37;;;;;;;9.75;7.33;;;;;;;2.02;82.62;100044.05;1650575;87;21227;-50
2023/01/06 08:43:48;;;;;;;8.03;6.25;;;;;;;2.00;82.67;100056.84;1678781;83;21253;-52
2023/01/06 08:46:53;;;;;;;9.40;6.62;;;;;;;1.97;82.69;100061.13;1704474;83;21204;-51
2023/01/06 08:49:59;;;;;;;6.58;5.15;;;;;;;1.98;82.71;100072.30;1711076;83;21196;-50
2023/01/06 08:53:05;;;;;;;6.17;4.80;;;;;;;1.97;82.72;100085.41;1657277;84;21392;-56
2023/01/06 08:56:22;;;;;;;5.20;4.50;;;;;;;2.00;82.72;100083.84;1664008;83;21342;-57
2023/01/06 08:59:30;;;;;;;5.22;4.22;;;;;;;2.01;82.67;100093.63;1702778;84;21201;-54
2023/01/06 09:02:38;;;;;;;4.87;3.75;;;;;;;2.04;82.67;100106.39;1696753;83;21264;-54
2023/01/06 09:05:45;;;;;;;4.90;3.65;;;;;;;2.04;82.52;100112.27;1704175;84;21815;-54
2023/01/06 09:08:52;;;;;;;5.25;4.15;;;;;;;1.97;82.41;100098.91;1703958;84;21740;-58
2023/01/06 09:11:58;;;;;;;5.08;4.00;;;;;;;1.90;82.32;100108.52;1703792;84;21277;-54
2023/01/06 09:15:05;;;;;;;5.80;4.22;;;;;;;1.85;82.21;100112.95;1704006;84;21224;-54
2023/01/06 09:18:12;;;;;;;5.08;4.20;;;;;;;1.81;82.29;100111.48;1707921;84;21192;-54
2023/01/06 09:21:18;;;;;;;5.78;3.75;;;;;;;1.86;82.29;100117.84;1710750;83;21729;-57
2023/01/06 09:24:24;;;;;;;4.87;3.65;;;;;;;1.79;82.15;100113.95;1704396;84;21212;-55
2023/01/06 09:27:33;;;;;;;7.55;5.22;;;;;;;1.75;82.12;100129.53;1702748;83;21248;-56
2023/01/06 09:30:39;;;;;;;5.67;3.95;;;;;;;1.66;82.03;100125.38;1703941;83;21228;-56
2023/01/06 09:33:46;;;;;;;4.83;4.22;;;;;;;1.63;82.09;100145.39;1709298;84;21598;-56
2023/01/06 09:36:53;;;;;;;4.53;4.00;;;;;;;1.57;82.07;100145.03;1669603;85;21252;-56
2023/01/06 09:39:59;;;;;;;4.35;3.80;;;;;;;1.54;82.07;100143.42;1669134;85;21225;-55
2023/01/06 09:43:31;;;;;;;4.08;3.52;;;;;;;1.49;82.06;100167.23;1689708;84;21240;-51
2023/01/06 09:46:41;;;;;;;3.33;3.00;;;;;;;1.46;82.08;100154.84;1676088;85;21438;-52
2023/01/06 09:49:57;;;;;;;4.53;3.80;;;;;;;1.36;81.92;100194.81;1687167;83;21792;-51
2023/01/06 09:53:21;;;;;;;5.17;3.58;;;;;;;1.32;81.98;100195.54;1683985;85;21240;-50
2023/01/06 09:56:29;;;;;;;7.05;4.60;;;;;;;1.33;82.03;100202.64;1667937;83;21212;-50
2023/01/06 09:59:52;;;;;;;5.75;4.08;;;;;;;1.32;81.98;100208.16;1711287;84;21212;-50
2023/01/06 10:02:59;;;;;;;5.75;4.40;;;;;;;1.29;81.95;100214.66;1710856;82;21227;-50
2023/01/06 10:06:36;;;;;;;6.70;4.97;;;;;;;1.30;82.03;100220.41;1710697;84;21734;-50
2023/01/06 10:09:53;;;;;;;10.08;5.12;;;;;;;1.30;82.01;100228.50;1663114;86;21228;-52
2023/01/06 10:13:23;;;;;;;10.90;6.92;;;;;;;1.12;81.81;100254.70;1700589;84;21317;-53
2023/01/06 10:17:02;;;;;;;8.68;6.03;;;;;;;0.97;81.78;100232.49;1674227;85;21299;-52
2023/01/06 10:20:18;;;;;;;9.98;6.35;;;;;;;0.95;81.95;100245.73;1671130;84;21288;-52
2023/01/06 10:23:50;;;;;;;8.68;6.45;;;;;;;0.93;81.94;100255.76;1679432;85;21249;-52
2023/01/06 10:27:00;;;;;;;8.53;5.85;;;;;;;0.87;81.86;100250.34;1676454;85;21825;-52
2023/01/06 10:30:07;;;;;;;12.63;6.53;;;;;;;0.79;81.87;100249.23;1714198;83;21569;-51
2023/01/06 10:33:34;;;;;;;6.80;5.20;;;;;;;0.76;81.84;100268.33;1682013;84;21303;-53
2023/01/06 10:36:48;;;;;;;8.25;5.50;;;;;;;0.63;81.70;100280.99;1654809;84;21245;-52
2023/01/06 10:40:03;;;;;;;7.95;5.85;;;;;;;0.47;81.65;100281.30;1676286;85;21290;-50
2023/01/06 10:43:11;;;;;;;6.78;5.65;;;;;;;0.41;81.74;100280.41;1643929;87;21251;-51
2023/01/06 10:46:16;;;;;;;5.97;4.60;;;;;;;0.35;81.71;100288.09;1657661;86;21832;-50
2023/01/06 10:49:24;;;;;;;5.92;4.85;;;;;;;0.26;81.65;100297.69;1657409;86;21244;-51
2023/01/06 10:52:31;;;;;;;6.60;4.92;;;;;;;0.18;81.61;100312.67;1656941;86;21263;-51
2023/01/06 10:55:54;;;;;;;8.23;5.22;;;;;;;0.10;81.64;100312.37;1657904;86;21252;-52
2023/01/06 10:59:15;;;;;;;13.70;7.25;;;;;;;0.03;81.63;100328.13;1665282;84;21930;-52
2023/01/06 11:02:29;;;;;;;8.90;6.45;;;;;;;-0.03;81.62;100336.61;1665010;85;21896;-52
2023/01/06 11:05:39;;;;;;;8.55;5.05;;;;;;;-0.10;81.60;100359.56;1664294;85;21197;-51
2023/01/06 11:08:45;;;;;;;8.63;6.42;;;;;;;-0.18;81.57;100354.73;1665294;86;21221;-52
2023/01/06 11:11:55;;;;;;;10.08;6.10;;;;;;;-0.23;81.59;100338.53;1665761;85;21245;-52
2023/01/06 11:15:07;;;;;;;7.50;5.03;;;;;;;-0.33;81.44;100348.21;1665323;85;21243;-53
2023/01/06 11:18:37;;;;;;;7.97;5.65;;;;;;;-0.42;81.48;100355.59;1625354;87;21271;-57
2023/01/06 11:21:51;;;;;;;7.50;5.53;;;;;;;-0.50;81.51;100376.30;1697215;82;21224;-56
2023/01/06 11:25:01;;;;;;;10.72;6.10;;;;;;;-0.46;81.69;100390.39;1710002;84;21590;-56
2023/01/06 11:28:21;;;;;;;11.63;7.05;;;;;;;-0.52;81.59;100388.98;1704948;84;21291;-56
2023/01/06 11:31:30;;;;;;;12.03;6.62;;;;;;;-0.60;81.50;100402.55;1674690;84;21269;-57
2023/01/06 11:34:37;;;;;;;9.50;6.25;;;;;;;-0.64;81.56;100432.84;1628350;87;21240;-57
2023/01/06 11:37:48;;;;;;;9.08;6.05;;;;;;;-0.67;81.54;100399.92;1700783;84;21634;-57
2023/01/06 11:40:58;;;;;;;11.60;6.67;;;;;;;-0.68;81.58;100416.52;1704445;84;21256;-57
2023/01/06 11:44:10;;;;;;;9.88;6.28;;;;;;;-0.74;81.47;100428.17;1704706;84;21276;-56
2023/01/06 11:47:29;;;;;;;10.45;7.20;;;;;;;-0.83;81.46;100446.27;1701586;84;21272;-57
2023/01/06 11:50:36;;;;;;;10.88;6.72;;;;;;;-0.87;81.42;100448.28;1702214;83;21212;-57
2023/01/06 11:53:49;;;;;;;8.25;5.90;;;;;;;-0.93;81.48;100467.98;1624766;85;21757;-57
2023/01/06 11:57:26;;;;;;;10.80;6.80;;;;;;;-0.96;81.41;100470.87;1698751;84;21224;-57
2023/01/06 12:01:00;;;;;;;10.50;6.45;;;;;;;-0.95;81.52;100477.98;1717232;83;21276;-56
2023/01/06 12:04:14;;;;;;;11.60;6.42;;;;;;;-0.96;81.47;100473.56;1715759;82;21204;-56
2023/01/06 12:07:48;;;;;;;11.38;7.83;;;;;;;-1.00;81.44;100492.20;1714138;83;21212;-57
2023/01/06 12:10:59;;;;;;;12.88;8.45;;;;;;;-0.99;81.51;100465.70;1717186;83;21215;-56
2023/01/06 12:14:07;;;;;;;12.10;8.20;;;;;;;-1.02;81.42;100485.59;1717442;83;21220;-57
2023/01/06 12:17:31;;;;;;;11.05;7.37;;;;;;;-1.05;81.39;100487.61;1683106;84;21240;-56
2023/01/06 12:20:40;;;;;;;11.25;7.28;;;;;;;-1.10;81.33;100491.06;1676639;83;21260;-56
2023/01/06 12:23:49;;;;;;;12.98;7.40;;;;;;;-1.17;81.27;100497.81;1714781;82;21737;-57
2023/01/06 12:26:56;;;;;;;11.53;6.85;;;;;;;-1.20;81.34;100492.14;1688385;85;21240;-57
2023/01/06 12:30:06;;;;;;;11.15;7.28;;;;;;;-1.15;81.42;100517.35;1688675;84;21208;-57
2023/01/06 12:33:23;;;;;;;12.60;7.20;;;;;;;-1.20;81.30;100524.84;1669120;86;21218;-57
2023/01/06 12:36:57;;;;;;;10.85;6.62;;;;;;;-1.23;81.29;100540.68;1693497;83;21192;-57
2023/01/06 12:40:27;;;;;;;11.90;7.08;;;;;;;-1.28;81.21;100550.84;1706066;83;21741;-58
2023/01/06 12:43:34;;;;;;;11.78;7.58;;;;;;;-1.27;81.29;100556.62;1696208;83;21190;-56
2023/01/06 12:46:52;;;;;;;10.13;6.95;;;;;;;-1.25;81.35;100553.83;1714642;83;21336;-57
2023/01/06 12:50:07;;;;;;;9.93;6.35;;;;;;;-1.24;81.35;100557.76;1720752;82;21295;-57
2023/01/06 12:53:32;;;;;;;12.35;7.28;;;;;;;-1.25;81.30;100568.60;1726283;82;21200;-57
2023/01/06 12:56:43;;;;;;;10.68;7.78;;;;;;;-1.25;81.35;100585.55;1710904;83;21667;-58
2023/01/06 13:00:23;;;;;;;12.37;7.67;;;;;;;-1.24;81.29;100594.02;1709766;83;21266;-58
2023/01/06 13:03:46;;;;;;;9.28;6.25;;;;;;;-1.25;81.30;100602.16;1715988;83;21208;-57
2023/01/06 13:07:22;;;;;;;9.10;5.80;;;;;;;-1.22;81.34;100619.42;1712240;81;21585;-57
2023/01/06 13:10:54;;;;;;;8.63;5.72;;;;;;;-1.21;81.32;100623.83;1738261;82;21354;-58
2023/01/06 13:14:35;;;;;;;9.53;5.33;;;;;;;-1.19;81.27;100634.00;1744732;81;21960;-58
2023/01/06 13:17:47;;;;;;;8.73;5.03;;;;;;;-1.25;81.11;100629.86;1745431;81;21232;-57
2023/01/06 13:21:00;;;;;;;10.43;5.67;;;;;;;-1.36;80.95;100642.25;1745549;81;21729;-58
2023/01/06 13:24:19;;;;;;;10.53;5.92;;;;;;;-1.40;81.00;100636.66;1745277;81;21365;-58
2023/01/06 13:27:54;;;;;;;8.55;5.65;;;;;;;-1.39;81.03;100656.70;1745474;82;21291;-59
2023/01/06 13:31:14;;;;;;;12.70;8.58;;;;;;;-1.31;81.17;100655.75;1744613;82;22026;-56
2023/01/06 13:34:33;;;;;;;10.98;7.15;;;;;;;-1.26;81.18;100656.80;1707759;81;21272;-57
2023/01/06 13:37:59;;;;;;;11.65;5.92;;;;;;;-1.25;81.11;100690.78;1695088;83;21236;-58
2023/01/06 13:41:07;;;;;;;9.55;6.22;;;;;;;-1.31;81.04;100683.06;1719682;82;21270;-55
2023/01/06 13:44:16;;;;;;;9.08;5.37;;;;;;;-1.30;81.08;100672.23;1719940;83;21231;-58
2023/01/06 13:47:27;;;;;;;7.92;4.72;;;;;;;-1.24;81.13;100681.75;1711744;82;21253;-57
2023/01/06 13:50:32;;;;;;;12.05;5.30;;;;;;;-1.25;81.11;100683.56;1719540;83;21292;-57
2023/01/06 13:53:49;;;;;;;8.58;4.85;;;;;;;-1.30;80.97;100697.74;1722989;82;21204;-56
2023/01/06 13:56:59;;;;;;;8.83;4.70;;;;;;;-1.34;80.90;100710.11;1740445;82;21243;-56
2023/01/06 14:00:14;;;;;;;10.82;5.20;;;;;;;-1.35;80.88;100737.45;1720146;81;21331;-56
2023/01/06 14:03:30;;;;;;;10.40;4.90;;;;;;;-1.44;80.76;100729.09;1742150;81;21287;-57
2023/01/06 14:06:45;;;;;;;10.97;4.27;;;;;;;-1.49;80.72;100748.13;1738485;82;21216;-58
2023/01/06 14:09:56;;;;;;;10.90;5.20;;;;;;;-1.57;80.61;100743.23;1735296;81;21997;-56
2023/01/06 14:13:01;;;;;;;8.90;4.70;;;;;;;-1.60;80.65;100758.17;1712966;81;21240;-57
2023/01/06 14:16:19;;;;;;;6.92;3.60;;;;;;;-1.66;80.56;100759.88;1722026;82;21208;-58
2023/01/06 14:19:39;;;;;;;8.90;4.22;;;;;;;-1.73;80.45;100774.59;1718840;82;21274;-57
2023/01/06 14:22:47;;;;;;;7.75;4.40;;;;;;;-1.85;80.32;100779.34;1748848;81;21186;-56
2023/01/06 14:25:57;;;;;;;9.45;4.60;;;;;;;-1.97;80.26;100784.08;1747187;81;21187;-56
2023/01/06 14:29:08;;;;;;;;;;;;;;;-2.04;80.27;100792.07;1656120;84;21741;-56
2023/01/06 14:32:19;;;;;;;7.72;4.33;;;;;;;-2.12;80.11;100806.84;1672732;83;20587;-57
2023/01/06 14:35:28;;;;;;;9.13;4.75;;;;;;;-2.28;80.03;100814.89;1642845;86;21570;-57
2023/01/06 14:38:56;;;;;;;10.32;5.03;;;;;;;-2.34;80.11;100821.05;1695400;83;21248;-56
2023/01/06 14:42:28;;;;;;;9.95;4.53;;;;;;;-2.37;80.11;100835.97;1744131;81;21781;-56
2023/01/06 14:45:44;;;;;;;6.33;3.70;;;;;;;-2.49;79.97;100842.86;1745295;81;22078;-56
2023/01/06 14:48:53;;;;;;;6.72;3.70;;;;;;;-2.66;79.83;100850.94;1744385;82;21187;-56
2023/01/06 14:52:01;;;;;;;10.40;5.67;;;;;;;-2.78;79.76;100860.09;1745200;82;21231;-57
2023/01/06 14:55:07;;;;;;;11.93;6.28;;;;;;;-2.87;79.86;100853.40;1745893;81;21240;-56
2023/01/06 14:58:12;;;;;;;8.85;4.80;;;;;;;-2.89;79.85;100867.36;1734552;82;21236;-56
2023/01/06 15:01:37;;;;;;;10.60;4.47;;;;;;;-2.97;79.75;100884.77;1716769;83;21294;-57
2023/01/06 15:04:43;;;;;;;10.32;4.83;;;;;;;-3.09;79.68;100891.60;1708267;83;21263;-56